Time;durP1;ratioP1;P1;durP2;ratioP2;P2;SDS_P1;SDS_P2;PMS_P1;PMS_P2;Temp;Humidity;BMP_temperature;BMP_pressure;BME280_temperature;BME280_humidity;BME280_pressure;Samples;Min_cycle;Max_cycle;Signal;HPM_P1;HPM_P2
2021/03/14 00:01:03;;;;;;;3.95;1.20;;;;;;;4.77;79.27;100517.31;5090658;28;20056;-67
2021/03/14 00:03:43;;;;;;;4.68;1.05;;;;;;;4.56;79.72;100514.69;5091464;28;20052;-66
2021/03/14 00:06:11;;;;;;;2.35;0.80;;;;;;;4.85;79.66;100520.28;5091336;28;20063;-67
2021/03/14 00:08:38;;;;;;;4.45;0.77;;;;;;;4.69;78.86;100515.19;5072777;28;20052;-66
2021/03/14 00:11:06;;;;;;;6.65;0.93;;;;;;;4.53;79.35;100519.88;5073782;28;20513;-66
2021/03/14 00:13:36;;;;;;;5.50;1.63;;;;;;;4.65;79.15;100528.56;5071145;28;20044;-69
2021/03/14 00:20:42;;;;;;;5.95;1.38;;;;;;;4.78;79.05;100517.03;5094850;28;20040;-62
2021/03/14 00:23:12;;;;;;;7.32;1.45;;;;;;;4.82;78.75;100522.75;5093980;28;20383;-67
2021/03/14 00:25:44;;;;;;;7.22;1.15;;;;;;;4.84;78.56;100535.03;5077442;28;20521;-63
2021/03/14 00:28:14;;;;;;;6.80;1.13;;;;;;;5.08;78.01;100541.44;5076723;28;20048;-65
2021/03/14 00:30:41;;;;;;;6.03;1.30;;;;;;;4.92;77.36;100547.25;5094943;28;20079;-66
2021/03/14 00:33:13;;;;;;;7.18;1.35;;;;;;;4.81;78.08;100560.16;5095035;28;20395;-66
2021/03/14 00:35:41;;;;;;;8.93;1.48;;;;;;;4.85;79.12;100546.75;5076364;28;20052;-64
2021/03/14 00:38:11;;;;;;;11.00;2.08;;;;;;;4.96;78.70;100553.78;5094280;28;20055;-66
2021/03/14 00:40:39;;;;;;;7.93;1.42;;;;;;;5.14;77.56;100567.63;5094953;28;20043;-66
2021/03/14 00:43:06;;;;;;;10.27;1.33;;;;;;;5.19;77.75;100570.34;5076447;28;20048;-67
2021/03/14 00:45:35;;;;;;;5.25;1.40;;;;;;;5.22;78.08;100561.56;5076491;28;20044;-64
2021/03/14 00:48:07;;;;;;;8.00;1.58;;;;;;;5.24;78.19;100580.41;5077428;28;20055;-66
2021/03/14 00:50:43;;;;;;;5.40;1.60;;;;;;;5.40;77.65;100574.59;5062152;28;20375;-67
2021/03/14 00:53:19;;;;;;;10.82;1.50;;;;;;;5.29;77.40;100570.28;5094306;28;20586;-70
2021/03/14 00:55:50;;;;;;;12.57;1.70;;;;;;;5.34;77.60;100578.44;5060788;28;20048;-67
2021/03/14 00:58:21;;;;;;;7.80;1.52;;;;;;;5.42;77.53;100583.28;5094076;28;20052;-66
2021/03/14 01:00:48;;;;;;;9.65;1.63;;;;;;;5.74;77.42;100583.63;5075764;28;20051;-65
2021/03/14 01:03:15;;;;;;;8.55;1.50;;;;;;;5.64;75.86;100589.16;5076568;28;20044;-67
2021/03/14 01:05:46;;;;;;;10.50;1.52;;;;;;;5.29;76.44;100599.47;5076864;28;20052;-66
2021/03/14 01:08:17;;;;;;;10.50;2.10;;;;;;;5.29;77.63;100604.94;5076241;28;20052;-66
2021/03/14 01:10:45;;;;;;;12.57;1.70;;;;;;;5.40;77.12;100601.91;5058845;28;20048;-65
2021/03/14 01:13:23;;;;;;;9.80;1.95;;;;;;;5.42;76.68;100607.06;5076653;28;20395;-66
2021/03/14 01:15:51;;;;;;;10.65;1.88;;;;;;;5.34;76.83;100616.66;5076207;28;20048;-67
2021/03/14 01:18:19;;;;;;;11.75;2.10;;;;;;;5.42;77.21;100621.53;5075816;28;20163;-68
2021/03/14 01:20:53;;;;;;;13.55;1.75;;;;;;;5.24;77.38;100622.19;5093700;28;20044;-66
2021/03/14 01:23:20;;;;;;;12.93;2.00;;;;;;;5.39;77.96;100624.00;5094305;28;20048;-67
2021/03/14 01:25:47;;;;;;;11.00;1.60;;;;;;;5.43;78.54;100619.63;5075592;28;20059;-67
2021/03/14 01:28:14;;;;;;;10.23;1.95;;;;;;;5.30;78.70;100623.78;5093676;28;20386;-65
2021/03/14 01:30:41;;;;;;;10.60;2.63;;;;;;;5.50;78.24;100623.69;5094144;28;20573;-67
2021/03/14 01:33:13;;;;;;;17.02;2.15;;;;;;;5.53;77.40;100627.75;5093738;28;20410;-66
2021/03/14 01:35:50;;;;;;;12.10;1.77;;;;;;;5.69;76.65;100618.34;5093171;28;20044;-63
2021/03/14 01:38:17;;;;;;;14.00;2.40;;;;;;;5.81;76.01;100632.47;5093193;28;20047;-64
2021/03/14 01:40:44;;;;;;;8.98;1.55;;;;;;;5.64;75.63;100626.59;5093542;28;20112;-65
2021/03/14 01:43:11;;;;;;;13.48;2.03;;;;;;;5.82;74.93;100631.41;5075315;28;20044;-67
2021/03/14 01:45:42;;;;;;;14.18;2.85;;;;;;;5.89;74.72;100639.31;5093767;28;20371;-66
2021/03/14 01:48:22;;;;;;;15.30;1.92;;;;;;;5.53;75.02;100638.66;5092856;28;20051;-65
2021/03/14 01:50:53;;;;;;;11.93;1.88;;;;;;;5.57;75.77;100642.47;5093295;28;20059;-65
2021/03/14 01:53:20;;;;;;;8.63;1.73;;;;;;;5.47;74.64;100640.59;5075584;28;20063;-67
2021/03/14 01:55:56;;;;;;;11.07;1.63;;;;;;;5.61;74.23;100641.63;5077199;28;20437;-67
2021/03/14 01:58:23;;;;;;;12.75;2.10;;;;;;;5.66;75.74;100651.72;5092872;28;20059;-66
2021/03/14 02:00:55;;;;;;;12.68;2.58;;;;;;;5.84;74.32;100656.53;5057526;28;20048;-65
2021/03/14 02:03:32;;;;;;;13.05;1.83;;;;;;;5.86;74.22;100646.16;5092670;28;20052;-67
2021/03/14 02:06:02;;;;;;;19.95;2.35;;;;;;;5.70;74.67;100653.59;5093312;28;20470;-69
2021/03/14 02:08:39;;;;;;;14.82;2.20;;;;;;;5.61;75.40;100649.81;5092586;28;20071;-65
2021/03/14 02:11:06;;;;;;;14.60;2.10;;;;;;;5.63;73.99;100660.50;5093099;28;20052;-66
2021/03/14 02:13:44;;;;;;;9.13;1.88;;;;;;;5.45;75.11;100658.41;5090561;28;20390;-67
2021/03/14 02:16:19;;;;;;;13.48;2.45;;;;;;;5.60;74.67;100659.13;5058694;28;20062;-66
2021/03/14 02:18:56;;;;;;;14.50;2.08;;;;;;;5.59;74.14;100667.59;5088110;28;20431;-65
2021/03/14 02:21:23;;;;;;;17.63;2.83;;;;;;;5.53;75.10;100661.34;5073977;28;20051;-67
2021/03/14 02:24:02;;;;;;;17.20;2.33;;;;;;;5.66;73.92;100665.38;5075790;28;20048;-65
2021/03/14 02:26:43;;;;;;;20.60;2.58;;;;;;;5.61;74.41;100665.41;5092097;28;20055;-64
2021/03/14 02:29:15;;;;;;;14.65;2.28;;;;;;;5.44;74.46;100668.50;5091989;28;20056;-65
2021/03/14 02:31:51;;;;;;;14.25;1.75;;;;;;;5.31;75.93;100671.84;5092711;28;20059;-67
2021/03/14 02:34:24;;;;;;;11.25;2.28;;;;;;;5.51;75.06;100668.19;5074794;28;20044;-65
2021/03/14 02:36:52;;;;;;;14.15;2.28;;;;;;;5.46;75.60;100677.22;5089303;28;20398;-66
2021/03/14 02:39:22;;;;;;;8.65;2.08;;;;;;;5.56;74.92;100676.38;5091751;28;20056;-65
2021/03/14 02:41:57;;;;;;;13.48;2.30;;;;;;;5.63;74.62;100680.41;5074101;28;20048;-66
2021/03/14 02:44:27;;;;;;;20.00;2.60;;;;;;;5.65;74.21;100678.22;5074816;28;20044;-66
2021/03/14 02:52:04;;;;;;;13.98;2.03;;;;;;;5.61;74.36;100666.22;5091935;28;20048;-67
2021/03/14 02:54:33;;;;;;;20.10;2.53;;;;;;;5.54;74.06;100671.16;5074311;28;20402;-66
2021/03/14 02:57:01;;;;;;;16.02;2.58;;;;;;;5.54;74.45;100670.38;5074373;28;20490;-67
2021/03/14 02:59:28;;;;;;;17.40;2.28;;;;;;;5.54;74.77;100673.91;5092257;28;20520;-66
2021/03/14 03:01:55;;;;;;;14.95;2.75;;;;;;;5.85;74.30;100671.84;5057518;28;20059;-66
2021/03/14 03:04:24;;;;;;;15.05;2.78;;;;;;;6.01;73.87;100670.66;5074391;28;20051;-66
2021/03/14 03:06:56;;;;;;;13.52;2.30;;;;;;;6.02;73.17;100676.91;5091508;28;20053;-67
2021/03/14 03:09:26;;;;;;;22.60;3.63;;;;;;;5.95;73.00;100677.25;5074837;28;20056;-66
2021/03/14 03:11:56;;;;;;;15.50;2.70;;;;;;;5.87;72.96;100680.59;5090430;28;20047;-65
2021/03/14 03:14:30;;;;;;;16.63;3.38;;;;;;;5.76;73.56;100689.91;5074854;28;20051;-66
2021/03/14 03:16:58;;;;;;;14.43;3.10;;;;;;;5.82;73.99;100682.50;5073454;28;20044;-64
2021/03/14 03:23:56;;;;;;;11.77;2.25;;;;;;;5.67;73.56;100702.53;5091753;28;20395;-66
2021/03/14 03:26:23;;;;;;;21.13;3.22;;;;;;;5.72;73.92;100707.97;5073954;28;20103;-65
2021/03/14 03:28:50;;;;;;;16.23;2.55;;;;;;;5.87;74.29;100698.91;5057379;28;20048;-68
2021/03/14 03:31:17;;;;;;;17.13;2.20;;;;;;;5.79;73.97;100702.22;5091885;28;20611;-65
2021/03/14 03:38:13;;;;;;;14.15;2.25;;;;;;;5.83;74.58;100704.13;5092242;28;20047;-67
2021/03/14 03:40:41;;;;;;;18.58;3.10;;;;;;;5.88;74.79;100708.72;5086556;28;20047;-64
2021/03/14 03:43:09;;;;;;;18.60;2.70;;;;;;;5.57;74.96;100703.41;5091285;28;20059;-65
2021/03/14 03:45:44;;;;;;;21.42;2.80;;;;;;;5.83;76.37;100709.56;5092166;28;20048;-66
2021/03/14 03:52:33;;;;;;;15.77;2.55;;;;;;;5.69;75.86;100720.28;5096307;28;20475;-65
2021/03/14 03:55:03;;;;;;;22.98;2.47;;;;;;;5.76;75.70;100711.78;5095178;28;20414;-63
2021/03/14 03:57:30;;;;;;;20.25;2.78;;;;;;;5.93;76.82;100720.44;5077345;28;20044;-64
2021/03/14 03:59:57;;;;;;;17.85;2.90;;;;;;;5.96;75.90;100725.38;5061103;28;20044;-63
2021/03/14 04:02:26;;;;;;;25.02;3.90;;;;;;;5.93;76.14;100714.19;5095892;28;20047;-65
2021/03/14 04:05:07;;;;;;;24.23;4.15;;;;;;;5.86;75.96;100717.22;5079071;28;20493;-67
2021/03/14 04:07:37;;;;;;;;;;;;;;;5.93;76.25;100722.38;5075166;28;20052;-67
2021/03/14 04:10:08;;;;;;;15.60;3.53;;;;;;;5.98;75.85;100714.16;5061162;28;19920;-67
2021/03/14 04:12:37;;;;;;;20.95;3.85;;;;;;;6.10;75.94;100715.41;5093650;28;20071;-68
2021/03/14 04:15:10;;;;;;;19.83;3.72;;;;;;;6.01;75.51;100719.88;5077345;28;20510;-65
2021/03/14 04:17:38;;;;;;;20.02;4.03;;;;;;;6.22;75.19;100715.91;5077115;28;20063;-65
2021/03/14 04:20:12;;;;;;;26.88;4.05;;;;;;;6.02;75.58;100718.75;5095297;28;20048;-64
2021/03/14 04:22:45;;;;;;;17.67;3.38;;;;;;;6.14;75.96;100718.38;5095539;28;20059;-65
2021/03/14 04:25:14;;;;;;;21.33;3.55;;;;;;;6.16;74.90;100727.97;5077267;28;20048;-66
2021/03/14 04:27:45;;;;;;;26.77;4.07;;;;;;;6.07;75.83;100726.91;5095534;28;20052;-66
2021/03/14 04:30:13;;;;;;;23.02;3.58;;;;;;;6.30;76.60;100734.44;5077173;28;20131;-67
2021/03/14 04:32:43;;;;;;;18.98;2.85;;;;;;;6.04;76.31;100730.22;5077394;28;20044;-65
2021/03/14 04:35:11;;;;;;;21.00;3.50;;;;;;;6.00;76.79;100734.63;5092931;28;20048;-64
2021/03/14 04:37:39;;;;;;;28.35;3.80;;;;;;;5.91;76.75;100747.25;5094942;28;20055;-65
2021/03/14 04:40:08;;;;;;;21.95;3.33;;;;;;;6.01;77.31;100743.66;5094356;28;20056;-64
2021/03/14 04:42:45;;;;;;;15.98;2.83;;;;;;;6.18;77.23;100750.38;5094246;28;20052;-66
2021/03/14 04:45:14;;;;;;;19.33;3.25;;;;;;;5.99;76.62;100749.41;5094725;28;20048;-66
2021/03/14 04:47:46;;;;;;;22.67;3.33;;;;;;;5.93;77.02;100755.19;5084296;28;20091;-64
2021/03/14 04:50:19;;;;;;;17.52;2.65;;;;;;;6.14;77.48;100765.72;5056789;28;20048;-61
2021/03/14 04:52:49;;;;;;;19.08;3.47;;;;;;;6.01;76.51;100755.41;5074635;28;20527;-67
2021/03/14 04:55:22;;;;;;;22.73;3.35;;;;;;;6.02;76.54;100762.50;5073757;28;20067;-64
2021/03/14 04:57:50;;;;;;;16.48;3.00;;;;;;;5.88;77.02;100750.53;5074294;28;20053;-65
2021/03/14 05:00:19;;;;;;;24.58;4.20;;;;;;;5.82;77.37;100761.75;5055608;28;20052;-65
2021/03/14 05:02:52;;;;;;;21.95;3.40;;;;;;;6.01;77.00;100766.34;5052088;28;20391;-65
2021/03/14 05:05:23;;;;;;;23.20;2.95;;;;;;;6.13;76.97;100766.81;5073745;28;20395;-63
2021/03/14 05:07:52;;;;;;;28.15;4.13;;;;;;;6.10;76.38;100767.34;5056613;28;20483;-64
2021/03/14 05:10:41;;;;;;;25.50;3.60;;;;;;;5.89;76.93;100767.78;5080965;28;20060;-67
2021/03/14 05:13:09;;;;;;;29.58;4.10;;;;;;;6.01;76.82;100771.00;5055463;28;20480;-65
2021/03/14 05:15:40;;;;;;;23.80;3.75;;;;;;;6.01;77.37;100785.47;5056538;28;20049;-67
2021/03/14 05:18:11;;;;;;;20.58;3.35;;;;;;;6.23;76.28;100780.41;5056051;28;20053;-66
2021/03/14 05:20:39;;;;;;;31.55;4.40;;;;;;;6.28;75.84;100785.84;5056226;28;20056;-67
2021/03/14 05:23:07;;;;;;;29.88;3.50;;;;;;;6.17;75.62;100781.53;5056011;28;20053;-65
2021/03/14 05:25:34;;;;;;;23.15;4.10;;;;;;;6.20;75.55;100781.00;5055918;28;20048;-66
2021/03/14 05:28:03;;;;;;;24.65;4.00;;;;;;;6.27;75.49;100792.44;5073958;28;20056;-64
2021/03/14 05:30:34;;;;;;;21.40;3.85;;;;;;;6.20;76.01;100791.09;5056168;28;20055;-67
2021/03/14 05:33:04;;;;;;;19.45;3.50;;;;;;;6.15;75.53;100785.69;5073560;28;20044;-65
2021/03/14 05:35:32;;;;;;;28.35;3.55;;;;;;;6.20;75.67;100786.47;5055913;28;20048;-64
2021/03/14 05:38:00;;;;;;;24.80;3.58;;;;;;;6.18;75.73;100798.78;5055950;28;20112;-65
2021/03/14 05:40:28;;;;;;;24.83;3.45;;;;;;;6.09;76.02;100804.03;5036673;28;20055;-67
2021/03/14 05:42:56;;;;;;;25.70;4.00;;;;;;;6.18;75.94;100801.50;5070783;28;20045;-65
2021/03/14 05:45:27;;;;;;;22.30;3.42;;;;;;;6.57;75.30;100803.16;5073038;28;20051;-66
2021/03/14 05:47:56;;;;;;;25.17;3.58;;;;;;;6.51;74.54;100819.91;5084979;28;20479;-66
2021/03/14 05:50:26;;;;;;;15.45;2.95;;;;;;;6.51;75.34;100809.78;5075606;28;20074;-65
2021/03/14 05:52:56;;;;;;;19.13;3.25;;;;;;;6.50;74.51;100810.88;5091497;28;20059;-64
2021/03/14 05:55:24;;;;;;;23.98;3.58;;;;;;;6.38;74.46;100817.81;5075212;28;20059;-65
2021/03/14 05:57:53;;;;;;;30.88;4.03;;;;;;;6.28;75.30;100815.94;5074878;28;20051;-67
2021/03/14 06:00:25;;;;;;;23.00;3.45;;;;;;;6.27;75.40;100817.06;5092664;28;20052;-67
2021/03/14 06:03:05;;;;;;;17.00;3.13;;;;;;;6.24;75.94;100814.06;5060539;28;20056;-67
2021/03/14 06:05:32;;;;;;;18.63;3.40;;;;;;;6.54;76.05;100825.63;5075471;28;20051;-66
2021/03/14 06:07:59;;;;;;;27.70;3.80;;;;;;;6.24;75.25;100828.53;5092412;28;20063;-66
2021/03/14 06:10:26;;;;;;;25.30;4.43;;;;;;;6.24;75.75;100836.75;5092854;28;20052;-64
2021/03/14 06:12:56;;;;;;;29.20;4.30;;;;;;;6.24;76.32;100838.69;5092396;28;20052;-68
2021/03/14 06:15:27;;;;;;;24.13;4.07;;;;;;;6.41;76.05;100834.47;5092570;28;20391;-67
2021/03/14 06:17:57;;;;;;;19.65;3.13;;;;;;;6.44;74.93;100855.78;5075154;28;20055;-67
2021/03/14 06:20:34;;;;;;;31.73;4.38;;;;;;;6.08;76.20;100845.31;5092841;28;20055;-66
2021/03/14 06:27:54;;;;;;;38.58;4.10;;;;;;;6.05;76.75;100862.28;5092674;28;20051;-63
2021/03/14 06:30:28;;;;;;;35.13;4.80;;;;;;;6.45;75.57;100871.09;5076191;28;20040;-68
2021/03/14 06:33:12;;;;;;;28.73;4.22;;;;;;;6.34;75.36;100875.00;5074935;28;20059;-66
2021/03/14 06:35:43;;;;;;;26.33;3.85;;;;;;;6.44;75.93;100876.84;5074665;28;20071;-66
2021/03/14 06:38:33;;;;;;;26.75;3.90;;;;;;;6.46;74.92;100877.41;5040858;28;20121;-66
2021/03/14 06:41:06;;;;;;;24.23;3.97;;;;;;;6.07;75.45;100874.56;5074390;28;20051;-66
2021/03/14 06:43:42;;;;;;;24.60;4.03;;;;;;;6.13;76.21;100873.47;5092447;28;20490;-65
2021/03/14 06:46:37;;;;;;;23.15;3.88;;;;;;;6.18;76.14;100889.03;5069882;28;20048;-66
2021/03/14 06:49:11;;;;;;;27.60;3.97;;;;;;;6.09;75.63;100887.97;5066830;28;20048;-65
2021/03/14 06:56:09;;;;;;;23.20;3.42;;;;;;;6.03;76.06;100906.31;5092591;28;20052;-65
2021/03/14 06:58:39;;;;;;;27.48;4.40;;;;;;;6.05;75.72;100906.84;5074421;28;20052;-68
2021/03/14 07:01:13;;;;;;;32.08;4.50;;;;;;;6.01;75.74;100915.88;5091844;28;20055;-64
2021/03/14 07:03:44;;;;;;;27.85;4.15;;;;;;;6.20;75.84;100923.22;5073332;28;20047;-66
2021/03/14 07:06:23;;;;;;;24.08;4.07;;;;;;;6.20;75.51;100925.13;5092499;28;20051;-64
2021/03/14 07:13:09;;;;;;;23.08;3.90;;;;;;;6.48;74.99;100938.13;5091997;28;20063;-67
2021/03/14 07:15:49;;;;;;;27.85;3.92;;;;;;;6.52;74.87;100944.69;5092209;28;20509;-67
2021/03/14 07:18:16;;;;;;;26.38;4.47;;;;;;;6.55;74.77;100950.41;5055022;28;20048;-67
2021/03/14 07:20:43;;;;;;;31.17;4.07;;;;;;;6.41;75.05;100945.81;5073508;28;20059;-66
2021/03/14 07:27:38;;;;;;;29.40;4.13;;;;;;;6.46;74.38;100971.25;5073222;28;20058;-68
2021/03/14 07:30:12;;;;;;;32.65;4.93;;;;;;;6.48;75.15;100976.44;5058709;28;20047;-66
2021/03/14 07:32:48;;;;;;;32.03;4.78;;;;;;;6.57;74.31;100982.97;5091694;28;20467;-66
2021/03/14 07:35:16;;;;;;;24.70;4.32;;;;;;;6.59;74.76;100987.03;5088878;28;20044;-65
2021/03/14 07:42:11;;;;;;;29.55;4.03;;;;;;;6.77;75.38;100997.38;5092156;28;20036;-69
2021/03/14 07:44:38;;;;;;;25.45;4.97;;;;;;;6.67;74.74;101005.63;5057570;28;20490;-68
2021/03/14 07:47:06;;;;;;;25.65;4.15;;;;;;;6.82;73.93;101002.81;5072179;28;20044;-68
2021/03/14 07:49:34;;;;;;;19.90;3.80;;;;;;;6.93;74.01;101013.72;5091831;28;20510;-67
2021/03/14 07:52:05;;;;;;;29.00;4.17;;;;;;;6.95;73.40;101019.72;5091661;28;20044;-67
2021/03/14 07:59:10;;;;;;;48.90;6.00;;;;;;;6.71;75.04;101036.00;5091562;28;20036;-65
2021/03/14 08:01:37;;;;;;;61.40;9.45;;;;;;;6.90;74.15;101037.00;5091646;28;20059;-67
2021/03/14 08:04:28;;;;;;;85.75;13.50;;;;;;;7.26;73.42;101034.88;5091062;28;20052;-63
2021/03/14 08:06:55;;;;;;;53.85;6.55;;;;;;;7.37;73.48;101036.47;5057331;28;20394;-67
2021/03/14 08:09:46;;;;;;;43.22;7.70;;;;;;;7.29;73.63;101029.66;5092024;28;20048;-67
2021/03/14 08:12:23;;;;;;;32.92;5.32;;;;;;;7.04;73.83;101042.69;5088375;28;20051;-64
2021/03/14 08:14:54;;;;;;;46.00;6.28;;;;;;;7.12;74.55;101048.38;5073369;28;20051;-67
2021/03/14 08:17:23;;;;;;;36.70;4.97;;;;;;;7.40;73.81;101057.81;5091724;28;20036;-67
2021/03/14 08:19:52;;;;;;;47.53;6.00;;;;;;;7.38;73.92;101063.56;5088391;28;20055;-66
2021/03/14 08:22:37;;;;;;;34.50;5.65;;;;;;;7.82;73.06;101072.59;5056559;28;20044;-67
2021/03/14 08:25:21;;;;;;;29.27;5.00;;;;;;;7.74;71.50;101073.19;5073236;28;20063;-66
2021/03/14 08:28:15;;;;;;;29.08;4.90;;;;;;;7.95;71.63;101071.09;5073259;28;20075;-67
2021/03/14 08:30:43;;;;;;;30.58;5.30;;;;;;;7.82;71.68;101086.28;5062942;28;20123;-69
2021/03/14 08:33:22;;;;;;;39.15;6.68;;;;;;;7.84;72.07;101097.81;5091170;28;20052;-67
2021/03/14 08:36:01;;;;;;;28.83;4.68;;;;;;;7.71;72.23;101103.09;5058686;28;20075;-67
2021/03/14 08:42:58;;;;;;;33.97;6.07;;;;;;;7.86;71.97;101113.97;5077069;28;20036;-68
2021/03/14 08:45:47;;;;;;;38.15;6.72;;;;;;;7.80;71.83;101113.19;5078974;28;20047;-65
2021/03/14 08:48:43;;;;;;;34.35;6.00;;;;;;;7.88;72.41;101111.72;4994821;28;20518;-66
2021/03/14 08:51:12;;;;;;;36.85;6.30;;;;;;;7.94;71.57;101116.91;4976132;28;20054;-68
2021/03/14 08:58:22;;;;;;;28.73;5.72;;;;;;;8.30;71.09;101122.13;4993008;28;20157;-63
2021/03/14 09:01:08;;;;;;;27.73;5.97;;;;;;;8.38;69.27;101116.00;4976630;28;20090;-63
2021/03/14 09:03:45;;;;;;;29.90;5.97;;;;;;;8.16;69.99;101110.94;4962000;28;20046;-64
2021/03/14 09:06:29;;;;;;;34.38;5.88;;;;;;;8.20;69.80;101133.16;4976502;28;20506;-67
2021/03/14 09:09:09;;;;;;;23.95;4.55;;;;;;;7.88;70.50;101133.66;4976390;28;20046;-65
2021/03/14 09:11:48;;;;;;;25.45;4.50;;;;;;;8.05;69.79;101136.84;4992577;28;20411;-67
2021/03/14 09:14:35;;;;;;;28.63;6.05;;;;;;;8.04;70.04;101145.38;4970971;28;20070;-67
2021/03/14 09:17:13;;;;;;;26.83;5.03;;;;;;;8.41;69.17;101145.63;4975983;28;20058;-66
2021/03/14 09:19:55;;;;;;;29.30;5.45;;;;;;;8.30;69.10;101139.41;4977595;28;20065;-67
2021/03/14 09:22:32;;;;;;;25.52;6.07;;;;;;;8.61;69.21;101142.69;4976634;28;20057;-68
2021/03/14 09:25:13;;;;;;;24.35;5.95;;;;;;;8.57;68.61;101149.88;5014552;28;20059;-68
2021/03/14 09:27:44;;;;;;;32.67;6.43;;;;;;;8.66;67.98;101148.97;5055855;28;20049;-65
2021/03/14 09:30:19;;;;;;;26.63;5.00;;;;;;;8.81;67.90;101150.72;5055454;28;20049;-67
2021/03/14 09:32:52;;;;;;;27.98;4.68;;;;;;;8.47;67.75;101153.50;5039572;28;20048;-66
2021/03/14 09:35:30;;;;;;;25.42;4.80;;;;;;;8.20;68.50;101171.56;5056419;28;20041;-64
2021/03/14 09:38:16;;;;;;;28.90;4.72;;;;;;;8.42;68.04;101175.53;5055616;28;20379;-66
2021/03/14 09:40:54;;;;;;;20.98;4.45;;;;;;;8.31;68.19;101165.75;5054517;28;20045;-65
2021/03/14 09:43:23;;;;;;;26.35;4.20;;;;;;;8.66;68.58;101161.88;5073213;28;20467;-68
2021/03/14 09:46:19;;;;;;;20.08;5.40;;;;;;;8.97;66.18;101185.16;4991798;28;20061;-63
2021/03/14 09:49:14;;;;;;;23.30;3.75;;;;;;;8.42;67.24;101167.28;4981003;28;20066;-65
2021/03/14 09:51:56;;;;;;;17.58;3.85;;;;;;;8.56;66.91;101161.97;4991972;28;20093;-64
2021/03/14 09:54:28;;;;;;;22.40;4.22;;;;;;;8.55;66.44;101176.78;4976225;28;20061;-65
2021/03/14 09:56:56;;;;;;;21.85;4.97;;;;;;;8.47;65.56;101183.72;4975288;28;20046;-64
2021/03/14 09:59:57;;;;;;;24.05;3.85;;;;;;;8.38;66.43;101206.59;4991191;28;20055;-66
2021/03/14 10:02:41;;;;;;;17.20;3.70;;;;;;;8.53;66.94;101179.81;4991611;28;20512;-65
2021/03/14 10:05:50;;;;;;;25.00;5.53;;;;;;;8.63;65.00;101198.94;4963104;28;20529;-62
2021/03/14 10:08:34;;;;;;;27.88;5.45;;;;;;;9.09;66.27;101189.13;4959832;28;20061;-63
2021/03/14 10:15:23;;;;;;;19.38;3.97;;;;;;;9.15;61.97;101205.56;4991687;28;20537;-64
2021/03/14 10:17:56;;;;;;;26.58;4.43;;;;;;;9.41;62.23;101196.72;4976868;28;20522;-63
2021/03/14 10:20:23;;;;;;;17.48;3.70;;;;;;;9.43;61.78;101199.97;4975345;28;20050;-63
2021/03/14 10:23:00;;;;;;;20.58;3.30;;;;;;;9.71;60.84;101190.81;5017175;28;20129;-61
2021/03/14 10:30:18;;;;;;;24.95;3.20;;;;;;;9.92;60.26;101218.88;5054286;28;20060;-70
2021/03/14 10:33:16;;;;;;;14.82;2.38;;;;;;;9.37;59.81;101227.84;5053799;28;20071;-67
2021/03/14 10:35:44;;;;;;;20.85;3.50;;;;;;;9.20;60.90;101228.31;5054460;28;20051;-70
2021/03/14 10:38:22;;;;;;;14.88;2.83;;;;;;;9.20;61.04;101238.50;5086416;28;20502;-67
2021/03/14 10:45:16;;;;;;;19.17;3.20;;;;;;;9.28;60.95;101255.16;5071778;28;19916;-65
2021/03/14 10:48:03;;;;;;;17.02;2.90;;;;;;;9.18;61.46;101241.53;5065893;28;20048;-71
2021/03/14 10:50:37;;;;;;;17.05;2.92;;;;;;;9.43;59.91;101238.47;5068537;28;20052;-67
2021/03/14 10:53:17;;;;;;;15.82;3.08;;;;;;;9.50;58.69;101254.66;5074423;28;20036;-68
2021/03/14 10:56:12;;;;;;;19.33;3.70;;;;;;;9.42;58.97;101258.03;5061233;28;20051;-68
2021/03/14 10:59:00;;;;;;;11.98;2.50;;;;;;;9.87;58.50;101258.28;5062942;28;20406;-67
2021/03/14 11:01:46;;;;;;;12.35;2.75;;;;;;;9.88;56.52;101259.94;5074190;28;20059;-67
2021/03/14 11:04:15;;;;;;;11.50;2.05;;;;;;;9.78;54.60;101268.28;5074287;28;20060;-70
2021/03/14 11:06:57;;;;;;;14.05;2.15;;;;;;;9.77;54.20;101282.34;5059087;28;20056;-71
2021/03/14 11:09:28;;;;;;;15.90;2.30;;;;;;;9.77;55.20;101258.41;5074358;28;20048;-64
2021/03/14 11:11:58;;;;;;;15.02;2.83;;;;;;;9.81;54.82;101264.16;5073649;28;20044;-67
2021/03/14 11:14:38;;;;;;;10.82;2.22;;;;;;;10.09;55.51;101274.25;5074794;28;20040;-69
2021/03/14 11:17:38;;;;;;;10.30;1.95;;;;;;;10.05;54.58;101271.25;5089661;28;20047;-70
2021/03/14 11:20:27;;;;;;;11.35;2.28;;;;;;;9.87;55.35;101266.53;5074088;28;20052;-65
2021/03/14 11:23:07;;;;;;;13.93;2.85;;;;;;;10.20;54.96;101265.56;5056698;28;20071;-66
2021/03/14 11:25:34;;;;;;;14.57;2.70;;;;;;;9.97;53.91;101274.66;5072034;28;20434;-65
2021/03/14 11:28:02;;;;;;;16.23;3.20;;;;;;;9.70;54.75;101268.97;5091120;28;20402;-64
2021/03/14 11:30:39;;;;;;;17.70;2.20;;;;;;;9.88;54.25;101268.19;5057493;28;20082;-63
2021/03/14 11:33:08;;;;;;;9.73;1.80;;;;;;;9.73;53.56;101273.88;5073325;28;20053;-66
2021/03/14 11:35:50;;;;;;;8.82;1.75;;;;;;;9.80;53.65;101279.00;5074138;28;20055;-63
2021/03/14 11:38:49;;;;;;;18.10;2.40;;;;;;;9.79;52.65;101278.19;5073158;28;20063;-64
2021/03/14 11:46:12;;;;;;;8.57;1.92;;;;;;;9.88;51.84;101281.94;5071084;28;20051;-66
2021/03/14 11:48:49;;;;;;;10.63;1.92;;;;;;;9.83;51.94;101290.25;5105641;28;20060;-66
2021/03/14 11:51:21;;;;;;;12.70;2.42;;;;;;;9.88;52.61;101287.44;5089902;28;20063;-67
2021/03/14 11:53:49;;;;;;;14.00;2.22;;;;;;;9.90;52.33;101278.91;5056835;28;20048;-63
2021/03/14 11:56:22;;;;;;;11.32;1.83;;;;;;;9.76;52.69;101276.03;5057027;28;20051;-68
2021/03/14 11:58:57;;;;;;;14.38;2.25;;;;;;;9.68;52.25;101279.44;5074536;28;20040;-66
2021/03/14 12:01:31;;;;;;;13.45;2.08;;;;;;;9.89;53.61;101274.50;5073370;28;20055;-64
2021/03/14 12:04:21;;;;;;;13.23;2.08;;;;;;;10.02;52.63;101282.81;5112283;28;20059;-67
2021/03/14 12:06:49;;;;;;;10.38;2.42;;;;;;;10.05;53.41;101293.28;5057515;28;20048;-66
2021/03/14 12:09:25;;;;;;;12.35;2.50;;;;;;;9.98;53.04;101292.81;5073819;28;20059;-66
2021/03/14 12:11:52;;;;;;;11.32;1.92;;;;;;;10.19;52.25;101290.63;5091173;28;20059;-68
2021/03/14 12:14:21;;;;;;;9.85;2.03;;;;;;;10.48;49.88;101290.50;5077500;28;20389;-64
2021/03/14 12:17:14;;;;;;;11.95;1.80;;;;;;;10.56;49.22;101271.34;5091309;28;20055;-67
2021/03/14 12:20:13;;;;;;;7.32;1.40;;;;;;;10.50;47.83;101304.75;5076619;28;20213;-64
2021/03/14 12:22:51;;;;;;;10.25;2.55;;;;;;;10.35;48.57;101289.31;5061515;28;20052;-67
2021/03/14 12:25:21;;;;;;;8.85;1.88;;;;;;;10.16;48.28;101292.03;5076943;28;20052;-66
2021/03/14 12:32:23;;;;;;;7.28;1.52;;;;;;;10.28;48.97;101291.59;5074007;28;20050;-68
2021/03/14 12:34:52;;;;;;;8.18;1.77;;;;;;;10.41;49.86;101279.03;5109936;28;20386;-68
2021/03/14 12:37:25;;;;;;;10.73;1.77;;;;;;;10.63;49.59;101279.22;5094246;28;20047;-64
2021/03/14 12:39:59;;;;;;;8.27;1.70;;;;;;;11.07;50.22;101279.56;5075961;28;20040;-68
2021/03/14 12:42:26;;;;;;;9.77;1.67;;;;;;;10.74;48.92;101289.75;5076648;28;20502;-70
2021/03/14 12:45:03;;;;;;;11.00;1.95;;;;;;;10.64;49.67;101286.34;5094099;28;20043;-66
2021/03/14 12:47:37;;;;;;;10.80;1.92;;;;;;;10.78;49.58;101285.31;5094799;28;20044;-67
2021/03/14 12:50:07;;;;;;;12.80;2.20;;;;;;;10.88;49.58;101287.09;5076690;28;20052;-67
2021/03/14 12:52:38;;;;;;;9.75;1.75;;;;;;;10.72;49.31;101278.22;5076731;28;20059;-68
2021/03/14 12:55:07;;;;;;;11.48;2.33;;;;;;;11.02;49.11;101277.72;5074458;28;20063;-66
2021/03/14 12:57:40;;;;;;;10.65;2.58;;;;;;;11.14;49.09;101275.28;5092118;28;20048;-69
2021/03/14 13:00:11;;;;;;;9.10;2.22;;;;;;;11.23;47.98;101276.22;5060101;28;20067;-64
2021/03/14 13:02:39;;;;;;;9.57;2.05;;;;;;;11.22;47.84;101288.38;5094495;28;20044;-66
2021/03/14 13:05:07;;;;;;;8.27;2.00;;;;;;;11.09;48.35;101272.63;5093520;28;20043;-66
2021/03/14 13:07:37;;;;;;;9.93;1.90;;;;;;;11.01;47.93;101283.53;5077158;28;20131;-68
2021/03/14 13:10:08;;;;;;;12.18;2.08;;;;;;;11.20;48.60;101278.78;5076593;28;20051;-65
2021/03/14 13:12:39;;;;;;;9.70;2.13;;;;;;;11.10;47.72;101279.78;5077096;28;20059;-68
2021/03/14 13:15:17;;;;;;;9.50;2.00;;;;;;;11.37;46.50;101284.50;5093764;28;20470;-67
2021/03/14 13:17:44;;;;;;;8.52;1.83;;;;;;;11.51;46.89;101279.81;5094634;28;20382;-68